createdAt,value
2024-02-21T06:57:57.265Z,1014.19
2024-02-21T06:58:58.523Z,1014.19
2024-02-21T06:59:58.394Z,1014.15
2024-02-21T07:00:58.531Z,1014.12
2024-02-21T07:01:58.643Z,1014.11
2024-02-21T07:02:58.668Z,1014.09
2024-02-21T07:03:58.732Z,1014.12
2024-02-21T07:04:58.983Z,1014.08
2024-02-21T07:05:59.196Z,1014.06
2024-02-21T07:06:59.055Z,1014.10
2024-02-21T07:07:59.209Z,1014.14
2024-02-21T07:08:59.189Z,1014.06
2024-02-21T07:09:59.264Z,1014.17
2024-02-21T07:10:59.395Z,1014.17
2024-02-21T07:11:59.485Z,1014.21
2024-02-21T07:12:59.484Z,1014.23
2024-02-21T07:13:59.666Z,1014.24
2024-02-21T07:14:59.673Z,1014.22
2024-02-21T07:15:59.762Z,1014.23
2024-02-21T07:16:59.909Z,1014.18
2024-02-21T07:17:59.939Z,1014.22
2024-02-21T07:19:00.059Z,1014.25
2024-02-21T07:20:00.257Z,1014.29
2024-02-21T07:21:00.175Z,1014.21
2024-02-21T07:22:00.250Z,1014.25
2024-02-21T07:23:00.415Z,1014.27
2024-02-21T07:24:00.540Z,1014.35
2024-02-21T07:25:02.873Z,1014.23
2024-02-21T07:26:00.872Z,1014.28
2024-02-21T07:27:00.587Z,1014.26
2024-02-21T07:28:00.664Z,1014.26
2024-02-21T07:29:00.922Z,1014.24
2024-02-21T07:30:00.922Z,1014.22
2024-02-21T07:31:00.906Z,1014.18
2024-02-21T07:32:01.364Z,1014.21
2024-02-21T07:33:01.134Z,1014.24
2024-02-21T07:34:01.255Z,1014.25
2024-02-21T07:35:01.476Z,1014.22
2024-02-21T07:36:01.337Z,1014.20
2024-02-21T07:37:01.406Z,1014.15
2024-02-21T07:38:01.529Z,1014.16
2024-02-21T07:39:01.520Z,1014.17
2024-02-21T07:40:01.712Z,1014.14
2024-02-21T07:41:01.786Z,1014.15
2024-02-21T07:42:01.822Z,1014.18
2024-02-21T07:43:01.907Z,1014.13
2024-02-21T07:44:02.020Z,1014.13
2024-02-21T07:45:02.020Z,1014.12
2024-02-21T07:46:02.178Z,1014.09
2024-02-21T07:47:02.441Z,1014.13
2024-02-21T07:48:02.340Z,1014.12
2024-02-21T07:49:02.422Z,1014.09
2024-02-21T07:50:02.533Z,1014.11
2024-02-21T07:51:02.533Z,1014.13
2024-02-21T07:52:02.604Z,1014.10
2024-02-21T07:53:02.726Z,1014.12
2024-02-21T07:54:02.783Z,1014.09
2024-02-21T07:55:02.866Z,1014.14
2024-02-21T07:56:03.077Z,1014.06
2024-02-21T07:57:03.039Z,1014.11
2024-02-21T07:58:03.079Z,1014.06
2024-02-21T07:59:03.226Z,1014.06
2024-02-21T08:00:03.224Z,1014.04
2024-02-21T08:01:03.320Z,1014.02
2024-02-21T08:02:03.495Z,1014.00
2024-02-21T08:03:03.461Z,1013.99
2024-02-21T08:04:03.616Z,1013.95
2024-02-21T08:05:03.612Z,1013.99
2024-02-21T08:06:03.739Z,1013.99
2024-02-21T08:07:03.744Z,1013.88
2024-02-21T08:08:03.951Z,1013.87
2024-02-21T08:09:03.955Z,1013.89
2024-02-21T08:10:04.027Z,1013.85
2024-02-21T08:11:04.249Z,1013.86
2024-02-21T08:12:04.196Z,1013.79
2024-02-21T08:13:04.234Z,1013.77
2024-02-21T08:14:04.479Z,1013.74
2024-02-21T08:15:04.426Z,1013.77
2024-02-21T08:16:04.529Z,1013.71
2024-02-21T08:17:04.725Z,1013.69
2024-02-21T08:18:04.788Z,1013.70
2024-02-21T08:19:04.793Z,1013.66
2024-02-21T08:20:04.898Z,1013.63
2024-02-21T08:21:04.944Z,1013.61
2024-02-21T08:22:05.072Z,1013.56
2024-02-21T08:23:05.227Z,1013.57
2024-02-21T08:24:05.200Z,1013.57
2024-02-21T08:25:05.278Z,1013.54
2024-02-21T08:26:05.419Z,1013.51
2024-02-21T08:27:05.400Z,1013.53
2024-02-21T08:28:05.473Z,1013.44
2024-02-21T08:29:05.608Z,1013.52
2024-02-21T08:30:05.711Z,1013.50
2024-02-21T08:31:05.714Z,1013.45
2024-02-21T08:32:05.890Z,1013.47
2024-02-21T08:33:06.004Z,1013.44
2024-02-21T08:34:06.065Z,1013.41
2024-02-21T08:35:06.108Z,1013.42
2024-02-21T08:36:06.104Z,1013.42
2024-02-21T08:37:06.203Z,1013.39
2024-02-21T08:38:06.310Z,1013.37
2024-02-21T08:39:06.380Z,1013.34
2024-02-21T08:40:06.462Z,1013.36
2024-02-21T08:41:06.583Z,1013.34
2024-02-21T08:42:06.655Z,1013.28
2024-02-21T08:43:06.718Z,1013.25
2024-02-21T08:44:06.843Z,1013.27
2024-02-21T08:45:06.886Z,1013.22
2024-02-21T08:46:07.008Z,1013.20
2024-02-21T08:47:07.173Z,1013.17
2024-02-21T08:48:07.238Z,1013.17
2024-02-21T08:49:07.231Z,1013.14
2024-02-21T08:50:11.872Z,1013.12
2024-02-21T08:51:07.429Z,1013.10
2024-02-21T08:52:07.534Z,1013.16
2024-02-21T08:53:07.574Z,1013.11
2024-02-21T08:54:07.623Z,1013.08
2024-02-21T08:55:07.696Z,1013.12
2024-02-21T08:56:07.872Z,1013.07
2024-02-21T08:57:07.901Z,1013.06
2024-02-21T08:58:07.961Z,1013.06
2024-02-21T08:59:08.132Z,1013.09
2024-02-21T09:00:08.094Z,1013.10
2024-02-21T09:01:08.236Z,1013.09
2024-02-21T09:02:08.332Z,1013.02
2024-02-21T09:03:08.356Z,1013.00
2024-02-21T09:04:08.443Z,1013.00
2024-02-21T09:05:09.156Z,1013.03
2024-02-21T09:06:08.712Z,1012.99
2024-02-21T09:07:08.762Z,1012.99
2024-02-21T09:08:08.928Z,1013.00
2024-02-21T09:09:08.849Z,1012.91
2024-02-21T09:10:08.958Z,1012.99
2024-02-21T09:11:09.171Z,1012.97
2024-02-21T09:12:09.215Z,1012.95
2024-02-21T09:13:09.219Z,1012.97
2024-02-21T09:14:09.274Z,1012.96
2024-02-21T09:15:09.323Z,1012.95
2024-02-21T09:16:09.402Z,1012.96
2024-02-21T09:17:09.563Z,1012.96
2024-02-21T09:18:09.641Z,1012.98
2024-02-21T09:19:09.663Z,1013.00
2024-02-21T09:20:09.760Z,1013.04
2024-02-21T09:21:09.818Z,1013.01
2024-02-21T09:22:09.873Z,1012.99
2024-02-21T09:23:09.979Z,1013.00
2024-02-21T09:24:10.056Z,1012.98
2024-02-21T09:25:10.139Z,1012.98
2024-02-21T09:26:10.286Z,1012.95
2024-02-21T09:27:10.318Z,1012.96
2024-02-21T09:28:10.426Z,1012.93
2024-02-21T09:29:10.853Z,1012.88
2024-02-21T09:30:10.822Z,1012.80
2024-02-21T09:31:10.721Z,1012.83
2024-02-21T09:32:10.827Z,1012.77
2024-02-21T09:33:15.054Z,1012.76
2024-02-21T09:34:11.109Z,1012.75
2024-02-21T09:35:11.129Z,1012.63
2024-02-21T09:36:11.104Z,1012.62
2024-02-21T09:37:11.176Z,1012.60
2024-02-21T09:38:11.305Z,1012.58
2024-02-21T09:39:11.341Z,1012.56
2024-02-21T09:40:11.412Z,1012.49
2024-02-21T09:41:11.516Z,1012.53
2024-02-21T09:42:11.566Z,1012.52
2024-02-21T09:43:11.627Z,1012.51
2024-02-21T09:44:11.711Z,1012.58
2024-02-21T09:45:11.771Z,1012.48
2024-02-21T09:46:11.868Z,1012.46
2024-02-21T09:47:12.013Z,1012.47
2024-02-21T09:48:12.240Z,1012.49
2024-02-21T09:49:12.148Z,1012.46
2024-02-21T09:50:12.278Z,1012.41
2024-02-21T09:51:12.328Z,1012.40
2024-02-21T09:52:12.403Z,1012.35
2024-02-21T09:53:12.489Z,1012.40
2024-02-21T09:54:16.697Z,1012.37
2024-02-21T09:55:12.606Z,1012.44
2024-02-21T09:56:15.307Z,1012.39
2024-02-21T09:57:12.756Z,1012.40
2024-02-21T09:58:12.822Z,1012.41
2024-02-21T09:59:12.967Z,1012.43
2024-02-21T10:00:12.985Z,1012.38
2024-02-21T10:01:21.414Z,1012.37
2024-02-21T10:02:13.346Z,1012.45
2024-02-21T10:03:13.237Z,1012.49
2024-02-21T10:04:13.326Z,1012.54
2024-02-21T10:05:13.396Z,1012.53
2024-02-21T10:06:13.518Z,1012.50
2024-02-21T10:07:13.544Z,1012.48
2024-02-21T10:08:13.636Z,1012.48
2024-02-21T10:09:13.672Z,1012.41
2024-02-21T10:10:13.759Z,1012.42
2024-02-21T10:11:13.907Z,1012.46
2024-02-21T10:12:14.595Z,1012.41
2024-02-21T10:13:14.040Z,1012.45
2024-02-21T10:14:14.120Z,1012.50
2024-02-21T10:15:14.185Z,1012.50
2024-02-21T10:16:14.314Z,1012.46
2024-02-21T10:17:14.440Z,1012.48
2024-02-21T10:18:14.537Z,1012.50
2024-02-21T10:19:14.647Z,1012.38
2024-02-21T10:20:14.678Z,1012.41
2024-02-21T10:21:14.711Z,1012.38
2024-02-21T10:22:14.780Z,1012.39
2024-02-21T10:23:14.943Z,1012.38
2024-02-21T10:24:14.967Z,1012.36
2024-02-21T10:25:15.048Z,1012.43
2024-02-21T10:26:15.188Z,1012.41
2024-02-21T10:27:15.304Z,1012.44
2024-02-21T10:28:15.344Z,1012.35
2024-02-21T10:29:15.416Z,1012.30
2024-02-21T10:30:15.490Z,1012.36
2024-02-21T10:31:15.577Z,1012.41
2024-02-21T10:32:15.763Z,1012.40
2024-02-21T10:33:15.846Z,1012.41
2024-02-21T10:34:16.017Z,1012.40
2024-02-21T10:35:15.930Z,1012.37
2024-02-21T10:36:15.970Z,1012.34
2024-02-21T10:37:16.094Z,1012.35
2024-02-21T10:38:16.143Z,1012.32
2024-02-21T10:39:16.224Z,1012.32
2024-02-21T10:40:16.310Z,1012.24
2024-02-21T10:41:16.399Z,1012.20
2024-02-21T10:42:16.486Z,1012.28
2024-02-21T10:43:16.598Z,1012.21
2024-02-21T10:44:16.644Z,1012.26
2024-02-21T10:45:17.217Z,1012.22
2024-02-21T10:46:16.820Z,1012.00
2024-02-21T10:47:16.948Z,1012.08
2024-02-21T10:48:17.168Z,1012.00
2024-02-21T10:49:17.256Z,1012.03
2024-02-21T10:50:17.231Z,1012.03
2024-02-21T10:51:17.231Z,1011.97
2024-02-21T10:52:17.444Z,1011.96
2024-02-21T10:53:17.471Z,1011.97
2024-02-21T10:54:17.507Z,1011.98
2024-02-21T10:55:17.650Z,1011.92
2024-02-21T10:56:17.718Z,1011.88
2024-02-21T10:57:17.774Z,1011.84
2024-02-21T10:58:17.915Z,1011.78
2024-02-21T10:59:17.899Z,1011.80
2024-02-21T11:00:17.998Z,1011.79
2024-02-21T11:01:18.221Z,1011.76
2024-02-21T11:02:18.354Z,1011.71
2024-02-21T11:03:18.263Z,1011.70
2024-02-21T11:04:18.429Z,1011.71
2024-02-21T11:05:18.449Z,1011.64
2024-02-21T11:06:18.516Z,1011.67
2024-02-21T11:07:18.763Z,1011.60
2024-02-21T11:08:18.752Z,1011.59
2024-02-21T11:09:18.773Z,1011.63
2024-02-21T11:10:18.840Z,1011.68
2024-02-21T11:11:27.424Z,1011.65
2024-02-21T11:12:19.067Z,1011.62
2024-02-21T11:13:19.068Z,1011.63
2024-02-21T11:14:19.168Z,1011.61
2024-02-21T11:15:19.219Z,1011.59
2024-02-21T11:16:19.280Z,1011.67
2024-02-21T11:17:19.473Z,1011.58
2024-02-21T11:18:19.511Z,1011.60
2024-02-21T11:19:19.836Z,1011.53
2024-02-21T11:20:20.206Z,1011.63
2024-02-21T11:21:19.750Z,1011.54
2024-02-21T11:22:19.934Z,1011.53
2024-02-21T11:23:19.960Z,1011.45
2024-02-21T11:24:19.986Z,1011.42
2024-02-21T11:25:20.129Z,1011.46
2024-02-21T11:26:20.147Z,1011.41
2024-02-21T11:27:20.229Z,1011.35
2024-02-21T11:28:20.339Z,1011.27
2024-02-21T11:29:20.396Z,1011.24
2024-02-21T11:30:20.503Z,1011.33
2024-02-21T11:31:20.567Z,1011.10
2024-02-21T11:32:20.633Z,1011.18
2024-02-21T11:33:20.798Z,1011.16
2024-02-21T11:34:21.052Z,1011.14
2024-02-21T11:35:21.393Z,1011.16
2024-02-21T11:36:20.960Z,1011.11
2024-02-21T11:37:21.129Z,1011.01
2024-02-21T11:38:21.184Z,1011.00
2024-02-21T11:39:21.220Z,1010.95
2024-02-21T11:40:21.384Z,1010.95
2024-02-21T11:41:21.420Z,1010.93
2024-02-21T11:42:21.475Z,1010.93
2024-02-21T11:43:21.636Z,1010.92
2024-02-21T11:44:21.635Z,1010.91
2024-02-21T11:45:21.788Z,1010.93
2024-02-21T11:46:21.822Z,1010.86
2024-02-21T11:47:21.994Z,1010.85
2024-02-21T11:48:22.113Z,1010.76
2024-02-21T11:49:22.113Z,1010.86
2024-02-21T11:50:22.353Z,1010.79
2024-02-21T11:51:22.214Z,1010.82
2024-02-21T11:52:22.318Z,1010.74
2024-02-21T11:53:22.367Z,1010.78
2024-02-21T11:54:22.450Z,1010.75
2024-02-21T11:55:22.760Z,1010.75
2024-02-21T11:56:22.613Z,1010.76
2024-02-21T11:57:22.724Z,1010.73
2024-02-21T11:58:22.851Z,1010.71
2024-02-21T11:59:22.884Z,1010.67
2024-02-21T12:00:22.982Z,1010.67
2024-02-21T12:01:23.134Z,1010.62
2024-02-21T12:02:23.122Z,1010.69
2024-02-21T12:03:23.245Z,1010.63
2024-02-21T12:04:23.396Z,1010.62
2024-02-21T12:05:23.508Z,1010.64
2024-02-21T12:06:23.778Z,1010.59
2024-02-21T12:07:23.564Z,1010.51
2024-02-21T12:08:23.653Z,1010.45
2024-02-21T12:09:23.699Z,1010.47
2024-02-21T12:10:23.813Z,1010.43
2024-02-21T12:11:24.002Z,1010.30
2024-02-21T12:12:24.009Z,1010.36
2024-02-21T12:13:24.065Z,1010.36
2024-02-21T12:14:24.101Z,1010.31
2024-02-21T12:15:24.211Z,1010.27
2024-02-21T12:16:25.207Z,1010.20
2024-02-21T12:17:24.407Z,1010.08
2024-02-21T12:18:24.526Z,1010.02
2024-02-21T12:19:24.536Z,1010.01
2024-02-21T12:20:24.665Z,1009.96
2024-02-21T12:21:24.655Z,1009.92
2024-02-21T12:22:24.778Z,1009.94
2024-02-21T12:23:24.815Z,1009.85
2024-02-21T12:24:24.897Z,1009.93
2024-02-21T12:25:25.131Z,1009.88
2024-02-21T12:26:25.108Z,1009.88
2024-02-21T12:27:25.151Z,1009.84
2024-02-21T12:28:25.285Z,1009.84
2024-02-21T12:29:25.340Z,1009.80
2024-02-21T12:30:25.384Z,1009.81
2024-02-21T12:31:25.493Z,1009.79
2024-02-21T12:32:25.580Z,1009.81
2024-02-21T12:33:25.785Z,1009.84
2024-02-21T12:34:34.854Z,1009.88
2024-02-21T12:35:25.851Z,1009.86
2024-02-21T12:36:25.866Z,1009.87
2024-02-21T12:37:26.017Z,1009.82
2024-02-21T12:38:26.088Z,1009.83
2024-02-21T12:39:26.083Z,1009.80
2024-02-21T12:40:26.179Z,1009.66
2024-02-21T12:41:26.271Z,1009.54
2024-02-21T12:42:26.340Z,1009.58
2024-02-21T12:43:26.454Z,1009.61
2024-02-21T12:44:26.710Z,1009.60
2024-02-21T12:45:26.609Z,1009.59
2024-02-21T12:46:26.635Z,1009.62
2024-02-21T12:47:26.752Z,1009.60
2024-02-21T12:48:26.813Z,1009.54
2024-02-21T12:49:26.913Z,1009.47
2024-02-21T12:50:27.061Z,1009.35
2024-02-21T12:51:27.030Z,1009.32
2024-02-21T12:52:27.244Z,1009.22
2024-02-21T12:53:33.133Z,1009.12
2024-02-21T12:54:27.285Z,1008.98
2024-02-21T12:55:27.376Z,1008.97
2024-02-21T12:56:27.459Z,1008.87
2024-02-21T12:57:28.372Z,1008.79
2024-02-21T12:58:27.638Z,1008.77
2024-02-21T12:59:27.694Z,1008.60
2024-02-21T13:00:27.812Z,1008.62
2024-02-21T13:01:27.963Z,1008.51
2024-02-21T13:02:28.042Z,1008.47
2024-02-21T13:03:29.797Z,1008.47
2024-02-21T13:04:28.725Z,1008.65
2024-02-21T13:05:28.360Z,1008.56
2024-02-21T13:06:28.447Z,1008.58
2024-02-21T13:07:28.374Z,1008.68
2024-02-21T13:08:28.425Z,1008.53
2024-02-21T13:09:28.566Z,1008.59
2024-02-21T13:10:28.727Z,1008.62
2024-02-21T13:11:28.891Z,1008.50
2024-02-21T13:12:28.755Z,1008.46
2024-02-21T13:13:28.893Z,1008.51
2024-02-21T13:14:28.937Z,1008.45
2024-02-21T13:15:28.985Z,1008.42
2024-02-21T13:16:29.136Z,1008.36
2024-02-21T13:17:29.352Z,1008.34
2024-02-21T13:18:29.484Z,1008.22
2024-02-21T13:19:29.574Z,1008.17
2024-02-21T13:20:29.492Z,1008.07
2024-02-21T13:21:29.542Z,1008.05
2024-02-21T13:22:29.957Z,1007.96
2024-02-21T13:23:29.681Z,1007.90
2024-02-21T13:24:29.961Z,1007.84
2024-02-21T13:25:29.913Z,1007.91
2024-02-21T13:26:29.968Z,1007.83
2024-02-21T13:27:30.202Z,1007.80
2024-02-21T13:28:30.107Z,1007.75
2024-02-21T13:29:30.198Z,1007.66
2024-02-21T13:30:30.304Z,1007.60
2024-02-21T13:31:30.452Z,1007.57
2024-02-21T13:32:30.505Z,1007.65
2024-02-21T13:33:30.649Z,1007.60
2024-02-21T13:34:30.804Z,1007.58
2024-02-21T13:35:30.839Z,1007.66
2024-02-21T13:36:30.807Z,1007.73
2024-02-21T13:37:31.501Z,1007.86
2024-02-21T13:38:31.102Z,1007.96
2024-02-21T13:39:31.021Z,1008.03
2024-02-21T13:40:31.123Z,1008.03
2024-02-21T13:41:31.186Z,1007.95
2024-02-21T13:42:31.327Z,1007.94
2024-02-21T13:43:31.402Z,1007.95
2024-02-21T13:44:31.437Z,1007.97
2024-02-21T13:45:31.521Z,1007.93
2024-02-21T13:46:31.601Z,1007.89
2024-02-21T13:47:31.664Z,1007.88
2024-02-21T13:48:31.849Z,1007.77
2024-02-21T13:49:31.924Z,1007.72
2024-02-21T13:50:31.861Z,1007.68
2024-02-21T13:51:31.927Z,1007.68
2024-02-21T13:52:32.086Z,1007.74
2024-02-21T13:53:32.132Z,1007.60
2024-02-21T13:54:32.280Z,1007.53
2024-02-21T13:55:32.304Z,1007.52
2024-02-21T13:56:32.333Z,1007.61
2024-02-21T13:57:32.488Z,1007.62
2024-02-21T13:58:32.538Z,1007.59
2024-02-21T13:59:33.408Z,1007.54
2024-02-21T14:00:32.659Z,1007.47
2024-02-21T14:01:32.836Z,1007.36
2024-02-21T14:02:32.850Z,1007.35
2024-02-21T14:03:32.951Z,1007.30
2024-02-21T14:04:33.098Z,1007.26
2024-02-21T14:05:32.979Z,1007.25
2024-02-21T14:06:33.168Z,1007.22
2024-02-21T14:07:33.184Z,1007.16
2024-02-21T14:08:33.244Z,1007.17
2024-02-21T14:09:33.289Z,1007.21
2024-02-21T14:10:33.396Z,1007.14
2024-02-21T14:11:33.549Z,1007.10
2024-02-21T14:12:33.485Z,1007.05
2024-02-21T14:13:33.623Z,1006.97
2024-02-21T14:14:34.445Z,1006.94
2024-02-21T14:15:33.751Z,1006.97
2024-02-21T14:16:33.883Z,1006.93
2024-02-21T14:17:33.994Z,1006.97
2024-02-21T14:18:34.093Z,1006.96
2024-02-21T14:19:34.133Z,1006.94
2024-02-21T14:20:34.161Z,1006.95
2024-02-21T14:21:34.208Z,1006.86
2024-02-21T14:22:34.315Z,1006.80
2024-02-21T14:23:34.414Z,1006.78
2024-02-21T14:24:34.451Z,1006.78
2024-02-21T14:25:34.775Z,1006.69
2024-02-21T14:26:34.673Z,1006.64
2024-02-21T14:27:34.760Z,1006.57
2024-02-21T14:28:34.933Z,1006.46
2024-02-21T14:29:34.940Z,1006.47
2024-02-21T14:30:35.029Z,1006.45
2024-02-21T14:31:35.081Z,1006.39
2024-02-21T14:32:35.219Z,1006.34
2024-02-21T14:33:35.315Z,1006.27
2024-02-21T14:34:35.376Z,1006.21
2024-02-21T14:35:35.582Z,1006.11
2024-02-21T14:36:35.560Z,1006.08
2024-02-21T14:37:35.623Z,1006.07
2024-02-21T14:38:35.676Z,1005.99
2024-02-21T14:39:35.773Z,1005.98
2024-02-21T14:40:35.876Z,1005.93
2024-02-21T14:41:35.949Z,1005.81
2024-02-21T14:42:36.030Z,1005.71
2024-02-21T14:43:36.274Z,1005.55
2024-02-21T14:44:36.222Z,1005.51
2024-02-21T14:45:36.318Z,1005.62
2024-02-21T14:46:36.486Z,1005.59
2024-02-21T14:47:36.484Z,1005.61
2024-02-21T14:48:36.610Z,1005.48
2024-02-21T14:49:36.723Z,1005.42
2024-02-21T14:50:36.846Z,1005.49
2024-02-21T14:51:36.785Z,1005.53
2024-02-21T14:52:36.916Z,1005.56
2024-02-21T14:53:36.947Z,1005.54
2024-02-21T14:54:37.019Z,1005.59
2024-02-21T14:55:37.139Z,1005.55
2024-02-21T14:56:37.211Z,1005.55
2024-02-21T14:57:37.358Z,1005.56
2024-02-21T14:58:37.385Z,1005.57
2024-02-21T14:59:37.503Z,1005.52
2024-02-21T15:00:37.654Z,1005.58
2024-02-21T15:01:37.667Z,1005.50
2024-02-21T15:02:37.668Z,1005.54
2024-02-21T15:03:37.755Z,1005.48
2024-02-21T15:04:37.942Z,1005.39
2024-02-21T15:05:38.064Z,1005.39
2024-02-21T15:06:38.094Z,1005.35
2024-02-21T15:07:38.091Z,1005.37
2024-02-21T15:08:38.122Z,1005.35
2024-02-21T15:09:38.208Z,1005.36
2024-02-21T15:10:38.368Z,1005.35
2024-02-21T15:11:38.518Z,1005.37
2024-02-21T15:12:38.451Z,1005.39
2024-02-21T15:13:38.651Z,1005.36
2024-02-21T15:14:38.597Z,1005.35
2024-02-21T15:15:38.689Z,1005.32
2024-02-21T15:16:38.874Z,1005.26
2024-02-21T15:17:38.903Z,1005.20
2024-02-21T15:18:39.035Z,1005.12
2024-02-21T15:19:40.460Z,1005.12
2024-02-21T15:20:39.203Z,1005.14
2024-02-21T15:21:39.232Z,1005.14
2024-02-21T15:22:39.389Z,1005.19
2024-02-21T15:23:39.367Z,1005.09
2024-02-21T15:24:39.455Z,1005.05
2024-02-21T15:25:39.592Z,1005.01
2024-02-21T15:26:39.665Z,1005.00
2024-02-21T15:27:40.752Z,1004.97
2024-02-21T15:28:39.826Z,1004.93
2024-02-21T15:29:39.883Z,1004.97
2024-02-21T15:30:39.933Z,1004.90
2024-02-21T15:31:40.063Z,1004.85
2024-02-21T15:32:40.157Z,1004.75
2024-02-21T15:33:40.296Z,1004.76
2024-02-21T15:34:40.365Z,1004.73
2024-02-21T15:35:40.491Z,1004.69
2024-02-21T15:36:40.411Z,1004.67
2024-02-21T15:37:40.572Z,1004.63
2024-02-21T15:38:40.586Z,1004.58
2024-02-21T15:39:40.688Z,1004.56
2024-02-21T15:40:40.817Z,1004.50
2024-02-21T15:41:40.836Z,1004.52
2024-02-21T15:42:40.902Z,1004.52
2024-02-21T15:43:40.985Z,1004.48
2024-02-21T15:44:41.044Z,1004.47
2024-02-21T15:45:41.128Z,1004.46
2024-02-21T15:46:41.248Z,1004.42
2024-02-21T15:47:41.323Z,1004.48
2024-02-21T15:48:41.504Z,1004.43
2024-02-21T15:49:41.630Z,1004.44
2024-02-21T15:50:41.584Z,1004.44
2024-02-21T15:51:41.623Z,1004.41
2024-02-21T15:52:41.723Z,1004.41
2024-02-21T15:53:41.793Z,1004.36
2024-02-21T15:54:41.900Z,1004.35
2024-02-21T15:55:42.001Z,1004.34
2024-02-21T15:56:42.034Z,1004.35
2024-02-21T15:57:42.147Z,1004.27
2024-02-21T15:58:42.246Z,1004.28
2024-02-21T15:59:42.274Z,1004.29
2024-02-21T16:00:42.362Z,1004.27
2024-02-21T16:01:42.557Z,1004.21
2024-02-21T16:02:42.562Z,1004.19
2024-02-21T16:03:42.830Z,1004.17
2024-02-21T16:04:42.834Z,1004.16
2024-02-21T16:05:42.892Z,1004.19
2024-02-21T16:06:42.873Z,1004.11
2024-02-21T16:07:42.964Z,1004.13
2024-02-21T16:08:43.016Z,1004.17
2024-02-21T16:09:43.111Z,1004.15
2024-02-21T16:10:43.226Z,1004.10
2024-02-21T16:11:43.346Z,1004.11
2024-02-21T16:12:43.367Z,1004.12
2024-02-21T16:13:43.477Z,1004.09
2024-02-21T16:14:43.610Z,1004.13
2024-02-21T16:15:43.606Z,1004.09
2024-02-21T16:16:43.724Z,1004.08
2024-02-21T16:17:43.825Z,1004.12
2024-02-21T16:18:43.856Z,1004.07
2024-02-21T16:19:44.028Z,1004.08
2024-02-21T16:20:44.080Z,1004.11
2024-02-21T16:21:44.112Z,1004.06
2024-02-21T16:22:44.233Z,1004.05
2024-02-21T16:23:44.297Z,1003.99
2024-02-21T16:24:44.420Z,1003.99
2024-02-21T16:25:44.501Z,1003.94
2024-02-21T16:26:44.554Z,1003.98
2024-02-21T16:27:44.620Z,1004.00
2024-02-21T16:28:44.698Z,1003.96
2024-02-21T16:29:44.782Z,1003.94
2024-02-21T16:30:44.897Z,1003.90
2024-02-21T16:31:45.005Z,1003.93
2024-02-21T16:32:45.065Z,1003.92
2024-02-21T16:33:45.239Z,1003.93
2024-02-21T16:34:45.337Z,1003.88
2024-02-21T16:35:45.297Z,1003.87
2024-02-21T16:36:45.443Z,1003.91
2024-02-21T16:37:45.481Z,1003.92
2024-02-21T16:38:45.531Z,1003.86
2024-02-21T16:39:45.617Z,1003.85
2024-02-21T16:40:45.759Z,1003.80
2024-02-21T16:41:45.791Z,1003.79
2024-02-21T16:42:45.884Z,1003.73
2024-02-21T16:43:45.990Z,1003.74
2024-02-21T16:44:46.029Z,1003.76
2024-02-21T16:45:46.100Z,1003.73
2024-02-21T16:46:46.223Z,1003.74
2024-02-21T16:47:46.284Z,1003.74
2024-02-21T16:48:46.344Z,1003.74
2024-02-21T16:49:46.448Z,1003.76
2024-02-21T16:50:53.546Z,1003.79
2024-02-21T16:51:46.626Z,1003.77
2024-02-21T16:52:46.817Z,1003.72
2024-02-21T16:53:46.767Z,1003.68
2024-02-21T16:54:46.846Z,1003.71
2024-02-21T16:55:46.992Z,1003.74
2024-02-21T16:56:46.989Z,1003.65
